sensor_id;sensor_type;location;lat;lon;timestamp;P1;durP1;ratioP1;P2;durP2;ratioP2
70549;SDS011;58101;48.658;2.328;2023-06-04T00:00:37;8.75;;;2.45;;
70549;SDS011;58101;48.658;2.328;2023-06-04T00:03:03;11.43;;;2.42;;
70549;SDS011;58101;48.658;2.328;2023-06-04T00:05:28;7.05;;;2.20;;
70549;SDS011;58101;48.658;2.328;2023-06-04T00:07:54;8.93;;;2.50;;
70549;SDS011;58101;48.658;2.328;2023-06-04T00:10:19;6.22;;;2.13;;
70549;SDS011;58101;48.658;2.328;2023-06-04T00:12:45;7.03;;;2.20;;
70549;SDS011;58101;48.658;2.328;2023-06-04T00:15:12;8.25;;;2.42;;
70549;SDS011;58101;48.658;2.328;2023-06-04T00:17:39;10.10;;;2.63;;
70549;SDS011;58101;48.658;2.328;2023-06-04T00:22:34;7.65;;;2.20;;
70549;SDS011;58101;48.658;2.328;2023-06-04T00:25:00;9.95;;;2.60;;
70549;SDS011;58101;48.658;2.328;2023-06-04T00:27:25;10.35;;;2.60;;
70549;SDS011;58101;48.658;2.328;2023-06-04T00:29:51;7.40;;;2.53;;
70549;SDS011;58101;48.658;2.328;2023-06-04T00:32:17;8.77;;;2.13;;
70549;SDS011;58101;48.658;2.328;2023-06-04T00:34:42;8.30;;;2.00;;
70549;SDS011;58101;48.658;2.328;2023-06-04T00:37:08;7.93;;;2.67;;
70549;SDS011;58101;48.658;2.328;2023-06-04T00:39:33;8.50;;;2.40;;
70549;SDS011;58101;48.658;2.328;2023-06-04T00:41:59;8.52;;;2.20;;
70549;SDS011;58101;48.658;2.328;2023-06-04T00:44:25;7.50;;;2.38;;
70549;SDS011;58101;48.658;2.328;2023-06-04T00:46:51;8.52;;;2.40;;
70549;SDS011;58101;48.658;2.328;2023-06-04T00:49:18;7.40;;;2.20;;
70549;SDS011;58101;48.658;2.328;2023-06-04T00:54:10;10.68;;;2.47;;
70549;SDS011;58101;48.658;2.328;2023-06-04T00:56:37;7.00;;;2.00;;
70549;SDS011;58101;48.658;2.328;2023-06-04T00:59:05;7.15;;;1.95;;
70549;SDS011;58101;48.658;2.328;2023-06-04T01:04:40;9.15;;;2.30;;
70549;SDS011;58101;48.658;2.328;2023-06-04T01:07:11;8.20;;;2.20;;
70549;SDS011;58101;48.658;2.328;2023-06-04T01:09:40;8.57;;;2.33;;
70549;SDS011;58101;48.658;2.328;2023-06-04T01:12:07;8.45;;;1.88;;
70549;SDS011;58101;48.658;2.328;2023-06-04T01:14:33;7.18;;;2.03;;
70549;SDS011;58101;48.658;2.328;2023-06-04T01:17:04;8.32;;;2.08;;
70549;SDS011;58101;48.658;2.328;2023-06-04T01:22:41;7.70;;;2.30;;
70549;SDS011;58101;48.658;2.328;2023-06-04T01:25:24;6.93;;;2.00;;
70549;SDS011;58101;48.658;2.328;2023-06-04T01:27:59;8.07;;;2.10;;
70549;SDS011;58101;48.658;2.328;2023-06-04T01:30:44;10.35;;;2.30;;
70549;SDS011;58101;48.658;2.328;2023-06-04T01:33:14;6.65;;;2.25;;
70549;SDS011;58101;48.658;2.328;2023-06-04T01:35:41;6.78;;;2.00;;
70549;SDS011;58101;48.658;2.328;2023-06-04T01:38:07;6.60;;;1.92;;
70549;SDS011;58101;48.658;2.328;2023-06-04T01:40:33;7.80;;;2.20;;
70549;SDS011;58101;48.658;2.328;2023-06-04T01:42:59;7.72;;;2.08;;
70549;SDS011;58101;48.658;2.328;2023-06-04T01:45:26;7.05;;;2.15;;
70549;SDS011;58101;48.658;2.328;2023-06-04T01:47:52;6.75;;;2.03;;
70549;SDS011;58101;48.658;2.328;2023-06-04T01:52:44;7.50;;;2.20;;
70549;SDS011;58101;48.658;2.328;2023-06-04T01:55:11;7.38;;;2.00;;
70549;SDS011;58101;48.658;2.328;2023-06-04T01:57:41;6.55;;;2.22;;
70549;SDS011;58101;48.658;2.328;2023-06-04T02:00:09;6.63;;;1.95;;
70549;SDS011;58101;48.658;2.328;2023-06-04T02:02:38;9.63;;;2.33;;
70549;SDS011;58101;48.658;2.328;2023-06-04T02:05:06;8.60;;;2.10;;
70549;SDS011;58101;48.658;2.328;2023-06-04T02:07:39;9.13;;;2.10;;
70549;SDS011;58101;48.658;2.328;2023-06-04T02:10:09;6.72;;;2.13;;
70549;SDS011;58101;48.658;2.328;2023-06-04T02:12:54;8.88;;;2.20;;
70549;SDS011;58101;48.658;2.328;2023-06-04T02:15:30;6.78;;;1.95;;
70549;SDS011;58101;48.658;2.328;2023-06-04T02:17:57;6.20;;;1.80;;
70549;SDS011;58101;48.658;2.328;2023-06-04T02:20:27;12.30;;;2.60;;
70549;SDS011;58101;48.658;2.328;2023-06-04T02:22:56;6.95;;;2.08;;
70549;SDS011;58101;48.658;2.328;2023-06-04T02:25:22;7.82;;;1.80;;
70549;SDS011;58101;48.658;2.328;2023-06-04T02:30:14;6.15;;;2.05;;
70549;SDS011;58101;48.658;2.328;2023-06-04T02:32:42;8.48;;;2.45;;
70549;SDS011;58101;48.658;2.328;2023-06-04T02:35:09;7.55;;;2.20;;
70549;SDS011;58101;48.658;2.328;2023-06-04T02:37:35;6.25;;;1.88;;
70549;SDS011;58101;48.658;2.328;2023-06-04T02:40:01;9.32;;;2.20;;
70549;SDS011;58101;48.658;2.328;2023-06-04T02:42:27;6.20;;;2.20;;
70549;SDS011;58101;48.658;2.328;2023-06-04T02:44:52;8.70;;;1.85;;
70549;SDS011;58101;48.658;2.328;2023-06-04T02:47:18;7.22;;;2.13;;
70549;SDS011;58101;48.658;2.328;2023-06-04T02:49:44;6.22;;;1.98;;
70549;SDS011;58101;48.658;2.328;2023-06-04T02:52:11;8.30;;;1.90;;
70549;SDS011;58101;48.658;2.328;2023-06-04T02:54:37;8.00;;;1.98;;
70549;SDS011;58101;48.658;2.328;2023-06-04T02:57:03;7.60;;;2.03;;
70549;SDS011;58101;48.658;2.328;2023-06-04T02:59:29;7.88;;;1.73;;
70549;SDS011;58101;48.658;2.328;2023-06-04T03:01:54;6.88;;;2.00;;
70549;SDS011;58101;48.658;2.328;2023-06-04T03:04:20;6.13;;;2.10;;
70549;SDS011;58101;48.658;2.328;2023-06-04T03:06:46;6.80;;;1.90;;
70549;SDS011;58101;48.658;2.328;2023-06-04T03:09:12;8.88;;;1.88;;
70549;SDS011;58101;48.658;2.328;2023-06-04T03:11:38;7.95;;;2.28;;
70549;SDS011;58101;48.658;2.328;2023-06-04T03:14:04;7.53;;;2.30;;
70549;SDS011;58101;48.658;2.328;2023-06-04T03:16:30;7.10;;;2.40;;
70549;SDS011;58101;48.658;2.328;2023-06-04T03:18:55;7.43;;;2.50;;
70549;SDS011;58101;48.658;2.328;2023-06-04T03:21:21;7.85;;;2.63;;
70549;SDS011;58101;48.658;2.328;2023-06-04T03:23:47;9.65;;;2.63;;
70549;SDS011;58101;48.658;2.328;2023-06-04T03:26:13;7.80;;;2.75;;
70549;SDS011;58101;48.658;2.328;2023-06-04T03:28:39;8.70;;;2.75;;
70549;SDS011;58101;48.658;2.328;2023-06-04T03:31:05;11.05;;;3.03;;
70549;SDS011;58101;48.658;2.328;2023-06-04T03:33:31;8.38;;;2.40;;
70549;SDS011;58101;48.658;2.328;2023-06-04T03:35:56;6.47;;;2.45;;
70549;SDS011;58101;48.658;2.328;2023-06-04T03:38:23;9.77;;;2.33;;
70549;SDS011;58101;48.658;2.328;2023-06-04T03:40:49;8.95;;;2.60;;
70549;SDS011;58101;48.658;2.328;2023-06-04T03:43:17;10.40;;;2.63;;
70549;SDS011;58101;48.658;2.328;2023-06-04T03:45:43;6.43;;;1.92;;
70549;SDS011;58101;48.658;2.328;2023-06-04T03:48:09;7.70;;;2.20;;
70549;SDS011;58101;48.658;2.328;2023-06-04T03:50:35;7.93;;;2.25;;
70549;SDS011;58101;48.658;2.328;2023-06-04T03:53:03;7.43;;;2.10;;
70549;SDS011;58101;48.658;2.328;2023-06-04T03:55:32;5.50;;;1.77;;
70549;SDS011;58101;48.658;2.328;2023-06-04T03:57:58;6.85;;;2.03;;
70549;SDS011;58101;48.658;2.328;2023-06-04T04:00:24;9.85;;;2.00;;
70549;SDS011;58101;48.658;2.328;2023-06-04T04:02:49;7.57;;;2.13;;
70549;SDS011;58101;48.658;2.328;2023-06-04T04:05:15;8.38;;;2.28;;
70549;SDS011;58101;48.658;2.328;2023-06-04T04:07:41;6.30;;;1.60;;
70549;SDS011;58101;48.658;2.328;2023-06-04T04:10:07;5.53;;;1.70;;
70549;SDS011;58101;48.658;2.328;2023-06-04T04:12:33;6.75;;;1.92;;
70549;SDS011;58101;48.658;2.328;2023-06-04T04:14:58;6.97;;;1.80;;
70549;SDS011;58101;48.658;2.328;2023-06-04T04:17:25;6.50;;;2.03;;
70549;SDS011;58101;48.658;2.328;2023-06-04T04:22:16;6.85;;;1.60;;
70549;SDS011;58101;48.658;2.328;2023-06-04T04:24:42;6.22;;;1.90;;
70549;SDS011;58101;48.658;2.328;2023-06-04T04:27:08;8.57;;;2.00;;
70549;SDS011;58101;48.658;2.328;2023-06-04T04:29:38;7.18;;;1.80;;
70549;SDS011;58101;48.658;2.328;2023-06-04T04:32:04;6.30;;;1.90;;
70549;SDS011;58101;48.658;2.328;2023-06-04T04:34:52;5.68;;;1.92;;
70549;SDS011;58101;48.658;2.328;2023-06-04T04:37:19;9.45;;;2.28;;
70549;SDS011;58101;48.658;2.328;2023-06-04T04:39:49;8.50;;;2.10;;
70549;SDS011;58101;48.658;2.328;2023-06-04T04:42:16;8.13;;;1.83;;
70549;SDS011;58101;48.658;2.328;2023-06-04T04:44:43;6.28;;;1.88;;
70549;SDS011;58101;48.658;2.328;2023-06-04T04:47:14;8.20;;;2.40;;
70549;SDS011;58101;48.658;2.328;2023-06-04T04:49:40;9.15;;;1.95;;
70549;SDS011;58101;48.658;2.328;2023-06-04T04:52:08;5.80;;;1.85;;
70549;SDS011;58101;48.658;2.328;2023-06-04T04:54:34;6.18;;;2.03;;
70549;SDS011;58101;48.658;2.328;2023-06-04T04:57:00;6.35;;;1.80;;
70549;SDS011;58101;48.658;2.328;2023-06-04T04:59:25;6.60;;;1.80;;
70549;SDS011;58101;48.658;2.328;2023-06-04T05:01:52;6.03;;;2.10;;
70549;SDS011;58101;48.658;2.328;2023-06-04T05:04:17;6.07;;;2.10;;
70549;SDS011;58101;48.658;2.328;2023-06-04T05:06:43;6.28;;;1.90;;
70549;SDS011;58101;48.658;2.328;2023-06-04T05:09:08;7.47;;;1.73;;
70549;SDS011;58101;48.658;2.328;2023-06-04T05:11:34;6.63;;;1.77;;
70549;SDS011;58101;48.658;2.328;2023-06-04T05:13:59;6.82;;;1.70;;
70549;SDS011;58101;48.658;2.328;2023-06-04T05:16:25;6.25;;;1.83;;
70549;SDS011;58101;48.658;2.328;2023-06-04T05:18:52;6.40;;;2.03;;
70549;SDS011;58101;48.658;2.328;2023-06-04T05:21:21;7.63;;;1.80;;
70549;SDS011;58101;48.658;2.328;2023-06-04T05:23:47;6.20;;;1.80;;
70549;SDS011;58101;48.658;2.328;2023-06-04T05:26:13;8.45;;;1.80;;
70549;SDS011;58101;48.658;2.328;2023-06-04T05:28:39;6.80;;;1.70;;
70549;SDS011;58101;48.658;2.328;2023-06-04T05:31:08;5.90;;;1.80;;
70549;SDS011;58101;48.658;2.328;2023-06-04T05:33:35;7.75;;;1.90;;
70549;SDS011;58101;48.658;2.328;2023-06-04T05:36:00;5.65;;;1.90;;
70549;SDS011;58101;48.658;2.328;2023-06-04T05:38:26;6.63;;;1.80;;
70549;SDS011;58101;48.658;2.328;2023-06-04T05:40:55;8.77;;;1.80;;
70549;SDS011;58101;48.658;2.328;2023-06-04T05:43:21;8.50;;;1.70;;
70549;SDS011;58101;48.658;2.328;2023-06-04T05:45:47;9.30;;;1.90;;
70549;SDS011;58101;48.658;2.328;2023-06-04T05:48:13;6.90;;;1.90;;
70549;SDS011;58101;48.658;2.328;2023-06-04T05:50:38;6.93;;;1.70;;
70549;SDS011;58101;48.658;2.328;2023-06-04T05:53:04;6.50;;;1.75;;
70549;SDS011;58101;48.658;2.328;2023-06-04T05:55:31;7.80;;;1.90;;
70549;SDS011;58101;48.658;2.328;2023-06-04T05:57:56;7.00;;;2.03;;
70549;SDS011;58101;48.658;2.328;2023-06-04T06:00:22;6.85;;;1.80;;
70549;SDS011;58101;48.658;2.328;2023-06-04T06:02:51;6.72;;;1.90;;
70549;SDS011;58101;48.658;2.328;2023-06-04T06:05:18;6.53;;;1.60;;
70549;SDS011;58101;48.658;2.328;2023-06-04T06:10:10;6.55;;;1.80;;
70549;SDS011;58101;48.658;2.328;2023-06-04T06:12:36;6.75;;;1.80;;
70549;SDS011;58101;48.658;2.328;2023-06-04T06:15:02;7.10;;;1.77;;
70549;SDS011;58101;48.658;2.328;2023-06-04T06:17:28;5.82;;;1.73;;
70549;SDS011;58101;48.658;2.328;2023-06-04T06:19:54;5.50;;;1.70;;
70549;SDS011;58101;48.658;2.328;2023-06-04T06:24:46;6.28;;;1.90;;
70549;SDS011;58101;48.658;2.328;2023-06-04T06:27:15;9.07;;;1.75;;
70549;SDS011;58101;48.658;2.328;2023-06-04T06:29:41;6.47;;;1.98;;
70549;SDS011;58101;48.658;2.328;2023-06-04T06:32:07;6.10;;;1.55;;
70549;SDS011;58101;48.658;2.328;2023-06-04T06:34:33;5.63;;;1.80;;
70549;SDS011;58101;48.658;2.328;2023-06-04T06:36:59;7.07;;;1.95;;
70549;SDS011;58101;48.658;2.328;2023-06-04T06:39:25;9.18;;;1.77;;
70549;SDS011;58101;48.658;2.328;2023-06-04T06:41:50;6.43;;;1.65;;
70549;SDS011;58101;48.658;2.328;2023-06-04T06:44:16;5.68;;;1.70;;
70549;SDS011;58101;48.658;2.328;2023-06-04T06:46:42;6.25;;;1.80;;
70549;SDS011;58101;48.658;2.328;2023-06-04T06:49:07;7.53;;;2.00;;
70549;SDS011;58101;48.658;2.328;2023-06-04T06:51:33;6.45;;;1.70;;
70549;SDS011;58101;48.658;2.328;2023-06-04T06:53:59;7.63;;;1.90;;
70549;SDS011;58101;48.658;2.328;2023-06-04T06:56:24;7.13;;;1.70;;
70549;SDS011;58101;48.658;2.328;2023-06-04T07:01:16;6.05;;;1.50;;
70549;SDS011;58101;48.658;2.328;2023-06-04T07:03:43;7.57;;;1.77;;
70549;SDS011;58101;48.658;2.328;2023-06-04T07:06:09;6.18;;;1.80;;
70549;SDS011;58101;48.658;2.328;2023-06-04T07:08:35;5.75;;;1.67;;
70549;SDS011;58101;48.658;2.328;2023-06-04T07:11:03;6.20;;;1.70;;
70549;SDS011;58101;48.658;2.328;2023-06-04T07:13:29;7.25;;;1.80;;
70549;SDS011;58101;48.658;2.328;2023-06-04T07:15:57;6.07;;;1.70;;
70549;SDS011;58101;48.658;2.328;2023-06-04T07:18:23;5.90;;;1.70;;
70549;SDS011;58101;48.658;2.328;2023-06-04T07:20:49;5.82;;;1.65;;
70549;SDS011;58101;48.658;2.328;2023-06-04T07:23:15;5.68;;;1.60;;
70549;SDS011;58101;48.658;2.328;2023-06-04T07:25:41;4.82;;;1.48;;
70549;SDS011;58101;48.658;2.328;2023-06-04T07:28:07;8.10;;;1.80;;
70549;SDS011;58101;48.658;2.328;2023-06-04T07:30:32;7.40;;;1.85;;
70549;SDS011;58101;48.658;2.328;2023-06-04T07:32:58;7.28;;;1.67;;
70549;SDS011;58101;48.658;2.328;2023-06-04T07:35:27;7.03;;;1.70;;
70549;SDS011;58101;48.658;2.328;2023-06-04T07:37:56;8.07;;;1.52;;
70549;SDS011;58101;48.658;2.328;2023-06-04T07:40:21;6.65;;;1.60;;
70549;SDS011;58101;48.658;2.328;2023-06-04T07:43:02;6.82;;;1.90;;
70549;SDS011;58101;48.658;2.328;2023-06-04T07:45:27;6.70;;;1.80;;
70549;SDS011;58101;48.658;2.328;2023-06-04T07:47:55;7.82;;;1.75;;
70549;SDS011;58101;48.658;2.328;2023-06-04T07:50:21;6.28;;;1.83;;
70549;SDS011;58101;48.658;2.328;2023-06-04T07:56:12;7.88;;;1.60;;
70549;SDS011;58101;48.658;2.328;2023-06-04T07:58:41;5.57;;;1.60;;
70549;SDS011;58101;48.658;2.328;2023-06-04T08:01:06;6.45;;;1.80;;
70549;SDS011;58101;48.658;2.328;2023-06-04T08:03:32;5.55;;;1.90;;
70549;SDS011;58101;48.658;2.328;2023-06-04T08:06:10;7.00;;;1.63;;
70549;SDS011;58101;48.658;2.328;2023-06-04T08:08:41;10.07;;;2.08;;
70549;SDS011;58101;48.658;2.328;2023-06-04T08:11:10;5.18;;;1.50;;
70549;SDS011;58101;48.658;2.328;2023-06-04T08:13:37;6.28;;;1.50;;
70549;SDS011;58101;48.658;2.328;2023-06-04T08:16:04;7.60;;;1.83;;
70549;SDS011;58101;48.658;2.328;2023-06-04T08:18:30;6.82;;;1.77;;
70549;SDS011;58101;48.658;2.328;2023-06-04T08:20:55;8.27;;;1.70;;
70549;SDS011;58101;48.658;2.328;2023-06-04T08:23:21;6.95;;;1.63;;
70549;SDS011;58101;48.658;2.328;2023-06-04T08:25:47;6.88;;;1.70;;
70549;SDS011;58101;48.658;2.328;2023-06-04T08:28:15;7.43;;;1.70;;
70549;SDS011;58101;48.658;2.328;2023-06-04T08:30:44;6.07;;;1.40;;
70549;SDS011;58101;48.658;2.328;2023-06-04T08:33:13;7.07;;;1.70;;
70549;SDS011;58101;48.658;2.328;2023-06-04T08:35:38;6.78;;;1.70;;
70549;SDS011;58101;48.658;2.328;2023-06-04T08:38:04;5.75;;;1.58;;
70549;SDS011;58101;48.658;2.328;2023-06-04T08:40:30;7.15;;;1.70;;
70549;SDS011;58101;48.658;2.328;2023-06-04T08:42:56;7.57;;;2.00;;
70549;SDS011;58101;48.658;2.328;2023-06-04T08:45:38;6.75;;;1.80;;
70549;SDS011;58101;48.658;2.328;2023-06-04T08:48:51;5.78;;;1.90;;
70549;SDS011;58101;48.658;2.328;2023-06-04T08:51:17;6.50;;;1.88;;
70549;SDS011;58101;48.658;2.328;2023-06-04T08:56:37;8.13;;;2.10;;
70549;SDS011;58101;48.658;2.328;2023-06-04T08:59:16;7.03;;;1.98;;
70549;SDS011;58101;48.658;2.328;2023-06-04T09:01:42;5.55;;;1.75;;
70549;SDS011;58101;48.658;2.328;2023-06-04T09:04:10;6.15;;;1.80;;
70549;SDS011;58101;48.658;2.328;2023-06-04T09:06:36;8.80;;;1.80;;
70549;SDS011;58101;48.658;2.328;2023-06-04T09:09:08;7.55;;;1.88;;
70549;SDS011;58101;48.658;2.328;2023-06-04T09:11:51;6.72;;;1.80;;
70549;SDS011;58101;48.658;2.328;2023-06-04T09:15:36;5.32;;;1.60;;
70549;SDS011;58101;48.658;2.328;2023-06-04T09:17:38;7.00;;;1.58;;
70549;SDS011;58101;48.658;2.328;2023-06-04T09:20:03;6.95;;;1.80;;
70549;SDS011;58101;48.658;2.328;2023-06-04T09:22:34;7.03;;;1.60;;
70549;SDS011;58101;48.658;2.328;2023-06-04T09:25:04;6.40;;;1.75;;
70549;SDS011;58101;48.658;2.328;2023-06-04T09:27:44;7.00;;;1.70;;
70549;SDS011;58101;48.658;2.328;2023-06-04T09:30:09;5.97;;;1.73;;
70549;SDS011;58101;48.658;2.328;2023-06-04T09:32:41;7.22;;;1.70;;
70549;SDS011;58101;48.658;2.328;2023-06-04T09:37:41;6.68;;;1.60;;
70549;SDS011;58101;48.658;2.328;2023-06-04T09:40:08;8.23;;;1.90;;
70549;SDS011;58101;48.658;2.328;2023-06-04T09:42:47;7.88;;;1.80;;
70549;SDS011;58101;48.658;2.328;2023-06-04T09:45:35;6.32;;;1.60;;
70549;SDS011;58101;48.658;2.328;2023-06-04T09:48:22;6.00;;;1.70;;
70549;SDS011;58101;48.658;2.328;2023-06-04T09:54:11;7.43;;;1.80;;
70549;SDS011;58101;48.658;2.328;2023-06-04T09:56:40;6.60;;;1.80;;
70549;SDS011;58101;48.658;2.328;2023-06-04T09:59:06;6.30;;;1.60;;
70549;SDS011;58101;48.658;2.328;2023-06-04T10:01:33;5.85;;;1.52;;
70549;SDS011;58101;48.658;2.328;2023-06-04T10:04:07;7.20;;;1.80;;
70549;SDS011;58101;48.658;2.328;2023-06-04T10:06:34;5.20;;;1.60;;
70549;SDS011;58101;48.658;2.328;2023-06-04T10:09:06;5.57;;;1.80;;
70549;SDS011;58101;48.658;2.328;2023-06-04T10:11:34;6.22;;;1.73;;
70549;SDS011;58101;48.658;2.328;2023-06-04T10:14:40;6.32;;;1.80;;
70549;SDS011;58101;48.658;2.328;2023-06-04T10:17:03;8.70;;;2.15;;
70549;SDS011;58101;48.658;2.328;2023-06-04T10:19:34;6.70;;;1.80;;
70549;SDS011;58101;48.658;2.328;2023-06-04T10:22:01;7.35;;;1.50;;
70549;SDS011;58101;48.658;2.328;2023-06-04T10:24:27;5.90;;;1.77;;
70549;SDS011;58101;48.658;2.328;2023-06-04T10:26:57;7.22;;;1.85;;
70549;SDS011;58101;48.658;2.328;2023-06-04T10:29:24;6.38;;;1.75;;
70549;SDS011;58101;48.658;2.328;2023-06-04T10:31:54;6.65;;;1.88;;
70549;SDS011;58101;48.658;2.328;2023-06-04T10:34:20;5.97;;;1.92;;
70549;SDS011;58101;48.658;2.328;2023-06-04T10:36:51;7.97;;;2.40;;
70549;SDS011;58101;48.658;2.328;2023-06-04T10:39:27;6.20;;;2.03;;
70549;SDS011;58101;48.658;2.328;2023-06-04T10:42:00;5.78;;;2.10;;
70549;SDS011;58101;48.658;2.328;2023-06-04T10:44:44;7.38;;;2.03;;
70549;SDS011;58101;48.658;2.328;2023-06-04T10:47:20;5.03;;;1.50;;
70549;SDS011;58101;48.658;2.328;2023-06-04T10:49:55;7.15;;;2.00;;
70549;SDS011;58101;48.658;2.328;2023-06-04T10:55:48;9.00;;;3.58;;
70549;SDS011;58101;48.658;2.328;2023-06-04T10:58:15;5.78;;;2.03;;
70549;SDS011;58101;48.658;2.328;2023-06-04T11:00:45;6.43;;;2.70;;
70549;SDS011;58101;48.658;2.328;2023-06-04T11:03:14;7.32;;;2.20;;
70549;SDS011;58101;48.658;2.328;2023-06-04T11:08:26;7.00;;;1.90;;
70549;SDS011;58101;48.658;2.328;2023-06-04T11:10:53;8.90;;;2.00;;
70549;SDS011;58101;48.658;2.328;2023-06-04T11:13:22;7.13;;;2.35;;
70549;SDS011;58101;48.658;2.328;2023-06-04T11:15:49;8.18;;;1.88;;
70549;SDS011;58101;48.658;2.328;2023-06-04T11:18:19;6.60;;;2.25;;
70549;SDS011;58101;48.658;2.328;2023-06-04T11:20:50;6.35;;;2.45;;
70549;SDS011;58101;48.658;2.328;2023-06-04T11:23:27;8.93;;;2.00;;
70549;SDS011;58101;48.658;2.328;2023-06-04T11:25:55;6.25;;;1.98;;
70549;SDS011;58101;48.658;2.328;2023-06-04T11:28:29;9.18;;;2.10;;
70549;SDS011;58101;48.658;2.328;2023-06-04T11:31:16;8.32;;;2.35;;
70549;SDS011;58101;48.658;2.328;2023-06-04T11:36:50;7.82;;;3.25;;
70549;SDS011;58101;48.658;2.328;2023-06-04T11:39:18;7.68;;;2.85;;
70549;SDS011;58101;48.658;2.328;2023-06-04T11:41:44;7.20;;;2.72;;
70549;SDS011;58101;48.658;2.328;2023-06-04T11:47:32;6.80;;;2.70;;
70549;SDS011;58101;48.658;2.328;2023-06-04T11:50:00;9.32;;;3.50;;
70549;SDS011;58101;48.658;2.328;2023-06-04T11:52:28;6.43;;;2.45;;
70549;SDS011;58101;48.658;2.328;2023-06-04T11:58:03;6.90;;;2.00;;
70549;SDS011;58101;48.658;2.328;2023-06-04T12:00:31;7.82;;;2.15;;
70549;SDS011;58101;48.658;2.328;2023-06-04T12:03:15;8.05;;;2.20;;
70549;SDS011;58101;48.658;2.328;2023-06-04T12:05:47;7.07;;;2.30;;
70549;SDS011;58101;48.658;2.328;2023-06-04T12:08:12;9.23;;;2.40;;
70549;SDS011;58101;48.658;2.328;2023-06-04T12:10:39;7.38;;;2.85;;
70549;SDS011;58101;48.658;2.328;2023-06-04T12:13:09;6.75;;;2.35;;
70549;SDS011;58101;48.658;2.328;2023-06-04T12:15:37;7.53;;;2.30;;
70549;SDS011;58101;48.658;2.328;2023-06-04T12:20:55;7.20;;;2.17;;
70549;SDS011;58101;48.658;2.328;2023-06-04T12:23:36;7.60;;;2.15;;
70549;SDS011;58101;48.658;2.328;2023-06-04T12:26:07;9.20;;;2.58;;
70549;SDS011;58101;48.658;2.328;2023-06-04T12:29:00;9.48;;;3.40;;
70549;SDS011;58101;48.658;2.328;2023-06-04T12:31:26;5.97;;;2.13;;
70549;SDS011;58101;48.658;2.328;2023-06-04T12:37:39;7.97;;;2.58;;
70549;SDS011;58101;48.658;2.328;2023-06-04T12:40:08;7.18;;;2.30;;
70549;SDS011;58101;48.658;2.328;2023-06-04T12:45:38;6.03;;;1.90;;
70549;SDS011;58101;48.658;2.328;2023-06-04T12:48:13;5.85;;;1.90;;
70549;SDS011;58101;48.658;2.328;2023-06-04T12:50:38;5.88;;;2.00;;
70549;SDS011;58101;48.658;2.328;2023-06-04T12:53:04;6.65;;;1.83;;
70549;SDS011;58101;48.658;2.328;2023-06-04T12:58:21;7.15;;;1.83;;
70549;SDS011;58101;48.658;2.328;2023-06-04T13:00:47;5.30;;;1.65;;
70549;SDS011;58101;48.658;2.328;2023-06-04T13:03:33;10.15;;;2.05;;
70549;SDS011;58101;48.658;2.328;2023-06-04T13:06:02;7.75;;;1.70;;
70549;SDS011;58101;48.658;2.328;2023-06-04T13:08:27;8.20;;;2.05;;
70549;SDS011;58101;48.658;2.328;2023-06-04T13:11:02;7.53;;;2.10;;
70549;SDS011;58101;48.658;2.328;2023-06-04T13:13:34;6.72;;;2.08;;
70549;SDS011;58101;48.658;2.328;2023-06-04T13:16:09;7.38;;;2.10;;
70549;SDS011;58101;48.658;2.328;2023-06-04T13:18:38;5.63;;;1.90;;
70549;SDS011;58101;48.658;2.328;2023-06-04T13:21:04;5.55;;;1.90;;
70549;SDS011;58101;48.658;2.328;2023-06-04T13:23:30;7.30;;;1.80;;
70549;SDS011;58101;48.658;2.328;2023-06-04T13:25:56;6.85;;;1.80;;
70549;SDS011;58101;48.658;2.328;2023-06-04T13:28:37;8.25;;;2.00;;
70549;SDS011;58101;48.658;2.328;2023-06-04T13:34:31;5.80;;;1.90;;
70549;SDS011;58101;48.658;2.328;2023-06-04T13:37:00;6.57;;;2.00;;
70549;SDS011;58101;48.658;2.328;2023-06-04T13:39:38;6.53;;;2.03;;
70549;SDS011;58101;48.658;2.328;2023-06-04T13:42:12;6.78;;;2.10;;
70549;SDS011;58101;48.658;2.328;2023-06-04T13:44:44;8.38;;;1.98;;
70549;SDS011;58101;48.658;2.328;2023-06-04T13:47:10;6.72;;;1.88;;
70549;SDS011;58101;48.658;2.328;2023-06-04T13:49:38;6.60;;;2.17;;
70549;SDS011;58101;48.658;2.328;2023-06-04T13:52:03;7.18;;;1.90;;
70549;SDS011;58101;48.658;2.328;2023-06-04T13:54:38;5.97;;;1.90;;
70549;SDS011;58101;48.658;2.328;2023-06-04T13:57:06;6.13;;;1.80;;
70549;SDS011;58101;48.658;2.328;2023-06-04T13:59:45;5.95;;;2.13;;
70549;SDS011;58101;48.658;2.328;2023-06-04T14:02:10;7.22;;;2.00;;
70549;SDS011;58101;48.658;2.328;2023-06-04T14:04:42;9.13;;;1.80;;
70549;SDS011;58101;48.658;2.328;2023-06-04T14:07:16;6.15;;;2.00;;
70549;SDS011;58101;48.658;2.328;2023-06-04T14:09:48;7.82;;;1.90;;
70549;SDS011;58101;48.658;2.328;2023-06-04T14:15:50;5.90;;;2.00;;
70549;SDS011;58101;48.658;2.328;2023-06-04T14:18:25;6.60;;;2.08;;
70549;SDS011;58101;48.658;2.328;2023-06-04T14:20:53;6.90;;;2.10;;
70549;SDS011;58101;48.658;2.328;2023-06-04T14:23:31;5.88;;;1.75;;
70549;SDS011;58101;48.658;2.328;2023-06-04T14:26:02;6.05;;;1.80;;
70549;SDS011;58101;48.658;2.328;2023-06-04T14:28:31;5.30;;;1.85;;
70549;SDS011;58101;48.658;2.328;2023-06-04T14:30:59;6.63;;;1.77;;
70549;SDS011;58101;48.658;2.328;2023-06-04T14:33:31;5.40;;;1.80;;
70549;SDS011;58101;48.658;2.328;2023-06-04T14:35:57;7.57;;;1.83;;
70549;SDS011;58101;48.658;2.328;2023-06-04T14:38:22;6.72;;;1.80;;
70549;SDS011;58101;48.658;2.328;2023-06-04T14:40:48;6.65;;;1.77;;
70549;SDS011;58101;48.658;2.328;2023-06-04T14:43:13;5.10;;;1.73;;
70549;SDS011;58101;48.658;2.328;2023-06-04T14:45:40;8.43;;;1.90;;
70549;SDS011;58101;48.658;2.328;2023-06-04T14:48:05;7.13;;;2.10;;
70549;SDS011;58101;48.658;2.328;2023-06-04T14:50:55;9.13;;;1.90;;
70549;SDS011;58101;48.658;2.328;2023-06-04T14:53:21;5.30;;;1.80;;
70549;SDS011;58101;48.658;2.328;2023-06-04T14:55:47;8.50;;;1.90;;
70549;SDS011;58101;48.658;2.328;2023-06-04T14:58:13;8.05;;;1.95;;
70549;SDS011;58101;48.658;2.328;2023-06-04T15:00:49;5.60;;;1.75;;
70549;SDS011;58101;48.658;2.328;2023-06-04T15:03:17;6.13;;;1.92;;
70549;SDS011;58101;48.658;2.328;2023-06-04T15:05:43;6.22;;;1.83;;
70549;SDS011;58101;48.658;2.328;2023-06-04T15:08:08;7.30;;;2.00;;
70549;SDS011;58101;48.658;2.328;2023-06-04T15:10:34;7.60;;;2.00;;
70549;SDS011;58101;48.658;2.328;2023-06-04T15:13:00;5.55;;;1.73;;
70549;SDS011;58101;48.658;2.328;2023-06-04T15:15:26;5.95;;;1.90;;
70549;SDS011;58101;48.658;2.328;2023-06-04T15:17:52;8.25;;;2.08;;
70549;SDS011;58101;48.658;2.328;2023-06-04T15:20:17;6.35;;;1.98;;
70549;SDS011;58101;48.658;2.328;2023-06-04T15:22:43;6.00;;;1.92;;
70549;SDS011;58101;48.658;2.328;2023-06-04T15:27:34;6.25;;;2.20;;
70549;SDS011;58101;48.658;2.328;2023-06-04T15:30:01;6.25;;;1.85;;
70549;SDS011;58101;48.658;2.328;2023-06-04T15:32:27;5.22;;;1.75;;
70549;SDS011;58101;48.658;2.328;2023-06-04T15:34:52;6.40;;;1.95;;
70549;SDS011;58101;48.658;2.328;2023-06-04T15:37:18;5.70;;;1.67;;
70549;SDS011;58101;48.658;2.328;2023-06-04T15:42:09;5.20;;;1.63;;
70549;SDS011;58101;48.658;2.328;2023-06-04T15:44:38;8.38;;;2.00;;
70549;SDS011;58101;48.658;2.328;2023-06-04T15:47:03;6.78;;;2.08;;
70549;SDS011;58101;48.658;2.328;2023-06-04T15:49:29;5.55;;;1.75;;
70549;SDS011;58101;48.658;2.328;2023-06-04T15:51:55;5.85;;;1.83;;
70549;SDS011;58101;48.658;2.328;2023-06-04T15:54:21;5.55;;;1.65;;
70549;SDS011;58101;48.658;2.328;2023-06-04T15:59:13;5.88;;;1.80;;
70549;SDS011;58101;48.658;2.328;2023-06-04T16:01:38;9.30;;;2.00;;
70549;SDS011;58101;48.658;2.328;2023-06-04T16:04:08;7.95;;;2.00;;
70549;SDS011;58101;48.658;2.328;2023-06-04T16:06:34;6.47;;;1.83;;
70549;SDS011;58101;48.658;2.328;2023-06-04T16:09:00;5.55;;;1.73;;
70549;SDS011;58101;48.658;2.328;2023-06-04T16:11:27;6.75;;;1.92;;
70549;SDS011;58101;48.658;2.328;2023-06-04T16:16:18;5.80;;;1.80;;
70549;SDS011;58101;48.658;2.328;2023-06-04T16:21:11;6.95;;;1.70;;